sensor_id;sensor_type;location;lat;lon;timestamp;pressure;altitude;pressure_sealevel;temperature;humidity
81997;BME280;71500;50.806;8.774;2023-12-14T00:01:04;98633.15;;;6.67;85.39
81997;BME280;71500;50.806;8.774;2023-12-14T00:03:40;98638.05;;;6.67;85.45
81997;BME280;71500;50.806;8.774;2023-12-14T00:06:15;98639.81;;;6.69;85.25
81997;BME280;71500;50.806;8.774;2023-12-14T00:08:46;98643.90;;;6.69;85.29
81997;BME280;71500;50.806;8.774;2023-12-14T00:11:17;98653.17;;;6.70;85.31
81997;BME280;71500;50.806;8.774;2023-12-14T00:13:49;98668.30;;;6.70;85.37
81997;BME280;71500;50.806;8.774;2023-12-14T00:16:20;98668.02;;;6.69;85.34
81997;BME280;71500;50.806;8.774;2023-12-14T00:18:52;98675.32;;;6.69;85.41
81997;BME280;71500;50.806;8.774;2023-12-14T00:21:23;98682.43;;;6.70;85.49
81997;BME280;71500;50.806;8.774;2023-12-14T00:23:54;98690.64;;;6.69;85.29
81997;BME280;71500;50.806;8.774;2023-12-14T00:26:26;98693.16;;;6.68;85.32
81997;BME280;71500;50.806;8.774;2023-12-14T00:28:57;98690.76;;;6.69;85.28
81997;BME280;71500;50.806;8.774;2023-12-14T00:31:31;98698.69;;;6.71;85.04
81997;BME280;71500;50.806;8.774;2023-12-14T00:34:02;98699.30;;;6.73;85.07
81997;BME280;71500;50.806;8.774;2023-12-14T00:36:34;98702.42;;;6.73;85.08
81997;BME280;71500;50.806;8.774;2023-12-14T00:39:05;98701.54;;;6.73;85.02
81997;BME280;71500;50.806;8.774;2023-12-14T00:41:37;98704.33;;;6.72;84.98
81997;BME280;71500;50.806;8.774;2023-12-14T00:44:08;98705.95;;;6.71;85.13
81997;BME280;71500;50.806;8.774;2023-12-14T00:46:40;98713.64;;;6.70;85.08
81997;BME280;71500;50.806;8.774;2023-12-14T00:49:12;98716.07;;;6.69;85.17
81997;BME280;71500;50.806;8.774;2023-12-14T00:51:43;98718.45;;;6.69;85.26
81997;BME280;71500;50.806;8.774;2023-12-14T00:54:15;98722.74;;;6.73;85.17
81997;BME280;71500;50.806;8.774;2023-12-14T00:56:47;98727.19;;;6.74;85.01
81997;BME280;71500;50.806;8.774;2023-12-14T00:59:18;98731.45;;;6.76;84.93
81997;BME280;71500;50.806;8.774;2023-12-14T01:01:50;98733.88;;;6.76;84.93
81997;BME280;71500;50.806;8.774;2023-12-14T01:04:21;98739.69;;;6.75;84.80
81997;BME280;71500;50.806;8.774;2023-12-14T01:06:52;98745.80;;;6.73;84.88
81997;BME280;71500;50.806;8.774;2023-12-14T01:09:24;98751.14;;;6.73;84.86
81997;BME280;71500;50.806;8.774;2023-12-14T01:11:55;98752.25;;;6.74;84.99
81997;BME280;71500;50.806;8.774;2023-12-14T01:14:27;98758.57;;;6.74;84.75
81997;BME280;71500;50.806;8.774;2023-12-14T01:16:58;98760.88;;;6.74;84.53
81997;BME280;71500;50.806;8.774;2023-12-14T01:19:30;98765.15;;;6.74;84.64
81997;BME280;71500;50.806;8.774;2023-12-14T01:22:01;98768.35;;;6.74;84.69
81997;BME280;71500;50.806;8.774;2023-12-14T01:24:32;98773.19;;;6.73;84.62
81997;BME280;71500;50.806;8.774;2023-12-14T01:27:04;98775.91;;;6.72;84.69
81997;BME280;71500;50.806;8.774;2023-12-14T01:29:36;98778.61;;;6.71;84.85
81997;BME280;71500;50.806;8.774;2023-12-14T01:32:08;98781.73;;;6.70;84.73
81997;BME280;71500;50.806;8.774;2023-12-14T01:34:39;98787.08;;;6.69;84.80
81997;BME280;71500;50.806;8.774;2023-12-14T01:37:10;98791.03;;;6.69;84.70
81997;BME280;71500;50.806;8.774;2023-12-14T01:39:42;98790.27;;;6.69;84.69
81997;BME280;71500;50.806;8.774;2023-12-14T01:42:13;98791.67;;;6.69;84.45
81997;BME280;71500;50.806;8.774;2023-12-14T01:44:44;98792.14;;;6.64;84.57
81997;BME280;71500;50.806;8.774;2023-12-14T01:47:16;98802.92;;;6.66;84.61
81997;BME280;71500;50.806;8.774;2023-12-14T01:49:48;98813.74;;;6.65;84.81
81997;BME280;71500;50.806;8.774;2023-12-14T01:52:19;98819.41;;;6.67;84.77
81997;BME280;71500;50.806;8.774;2023-12-14T01:54:51;98825.27;;;6.66;84.83
81997;BME280;71500;50.806;8.774;2023-12-14T01:57:22;98832.13;;;6.64;84.76
81997;BME280;71500;50.806;8.774;2023-12-14T01:59:53;98833.48;;;6.61;84.77
81997;BME280;71500;50.806;8.774;2023-12-14T02:02:25;98835.27;;;6.57;84.89
81997;BME280;71500;50.806;8.774;2023-12-14T02:04:56;98837.43;;;6.59;84.81
81997;BME280;71500;50.806;8.774;2023-12-14T02:07:28;98836.04;;;6.60;84.91
81997;BME280;71500;50.806;8.774;2023-12-14T02:09:59;98835.70;;;6.62;84.86
81997;BME280;71500;50.806;8.774;2023-12-14T02:12:31;98833.73;;;6.62;84.83
81997;BME280;71500;50.806;8.774;2023-12-14T02:15:05;98836.08;;;6.64;84.90
81997;BME280;71500;50.806;8.774;2023-12-14T02:17:36;98839.09;;;6.64;84.80
81997;BME280;71500;50.806;8.774;2023-12-14T02:20:10;98843.68;;;6.62;84.68
81997;BME280;71500;50.806;8.774;2023-12-14T02:22:51;98846.51;;;6.59;84.79
81997;BME280;71500;50.806;8.774;2023-12-14T02:25:23;98848.25;;;6.58;84.73
81997;BME280;71500;50.806;8.774;2023-12-14T02:27:55;98853.88;;;6.58;84.74
81997;BME280;71500;50.806;8.774;2023-12-14T02:30:26;98853.26;;;6.55;84.75
81997;BME280;71500;50.806;8.774;2023-12-14T02:32:58;98854.63;;;6.52;84.87
81997;BME280;71500;50.806;8.774;2023-12-14T02:35:29;98854.81;;;6.47;84.98
81997;BME280;71500;50.806;8.774;2023-12-14T02:38:00;98855.11;;;6.46;85.25
81997;BME280;71500;50.806;8.774;2023-12-14T02:40:32;98852.40;;;6.45;85.40
81997;BME280;71500;50.806;8.774;2023-12-14T02:43:03;98860.18;;;6.47;85.39
81997;BME280;71500;50.806;8.774;2023-12-14T02:45:34;98866.57;;;6.52;85.09
81997;BME280;71500;50.806;8.774;2023-12-14T02:48:06;98869.13;;;6.55;85.15
81997;BME280;71500;50.806;8.774;2023-12-14T02:50:38;98873.30;;;6.56;84.91
81997;BME280;71500;50.806;8.774;2023-12-14T02:53:09;98876.59;;;6.54;84.78
81997;BME280;71500;50.806;8.774;2023-12-14T02:55:41;98883.11;;;6.55;84.99
81997;BME280;71500;50.806;8.774;2023-12-14T02:58:13;98886.34;;;6.56;84.82
81997;BME280;71500;50.806;8.774;2023-12-14T03:00:44;98888.11;;;6.54;85.07
81997;BME280;71500;50.806;8.774;2023-12-14T03:03:16;98888.03;;;6.53;84.88
81997;BME280;71500;50.806;8.774;2023-12-14T03:05:47;98891.16;;;6.51;84.80
81997;BME280;71500;50.806;8.774;2023-12-14T03:08:19;98893.13;;;6.53;84.97
81997;BME280;71500;50.806;8.774;2023-12-14T03:10:51;98890.89;;;6.54;84.83
81997;BME280;71500;50.806;8.774;2023-12-14T03:13:22;98892.77;;;6.55;84.93
81997;BME280;71500;50.806;8.774;2023-12-14T03:15:53;98889.59;;;6.57;85.09
81997;BME280;71500;50.806;8.774;2023-12-14T03:18:25;98891.06;;;6.60;85.03
81997;BME280;71500;50.806;8.774;2023-12-14T03:20:56;98889.35;;;6.62;84.68
81997;BME280;71500;50.806;8.774;2023-12-14T03:23:27;98893.48;;;6.59;84.66
81997;BME280;71500;50.806;8.774;2023-12-14T03:25:59;98898.87;;;6.56;84.91
81997;BME280;71500;50.806;8.774;2023-12-14T03:28:31;98906.63;;;6.52;84.97
81997;BME280;71500;50.806;8.774;2023-12-14T03:31:03;98910.21;;;6.49;84.88
81997;BME280;71500;50.806;8.774;2023-12-14T03:33:34;98911.48;;;6.45;84.94
81997;BME280;71500;50.806;8.774;2023-12-14T03:36:08;98915.71;;;6.41;84.95
81997;BME280;71500;50.806;8.774;2023-12-14T03:38:39;98921.04;;;6.38;85.18
81997;BME280;71500;50.806;8.774;2023-12-14T03:41:11;98922.65;;;6.36;85.16
81997;BME280;71500;50.806;8.774;2023-12-14T03:43:42;98932.19;;;6.36;85.49
81997;BME280;71500;50.806;8.774;2023-12-14T03:46:14;98937.33;;;6.38;85.33
81997;BME280;71500;50.806;8.774;2023-12-14T03:48:45;98942.23;;;6.40;85.41
81997;BME280;71500;50.806;8.774;2023-12-14T03:51:20;98944.52;;;6.40;85.24
81997;BME280;71500;50.806;8.774;2023-12-14T03:53:52;98946.92;;;6.37;85.05
81997;BME280;71500;50.806;8.774;2023-12-14T03:56:23;98953.52;;;6.33;85.17
81997;BME280;71500;50.806;8.774;2023-12-14T03:58:54;98956.96;;;6.30;85.06
81997;BME280;71500;50.806;8.774;2023-12-14T04:01:27;98960.32;;;6.28;85.13
81997;BME280;71500;50.806;8.774;2023-12-14T04:03:58;98963.16;;;6.26;85.15
81997;BME280;71500;50.806;8.774;2023-12-14T04:06:30;98965.74;;;6.24;85.37
81997;BME280;71500;50.806;8.774;2023-12-14T04:09:01;98969.50;;;6.26;85.60
81997;BME280;71500;50.806;8.774;2023-12-14T04:11:32;98971.75;;;6.28;85.70
81997;BME280;71500;50.806;8.774;2023-12-14T04:14:04;98974.69;;;6.31;85.51
81997;BME280;71500;50.806;8.774;2023-12-14T04:16:35;98979.02;;;6.32;85.35
81997;BME280;71500;50.806;8.774;2023-12-14T04:19:06;98982.38;;;6.34;85.06
81997;BME280;71500;50.806;8.774;2023-12-14T04:21:41;98988.42;;;6.36;84.97
81997;BME280;71500;50.806;8.774;2023-12-14T04:24:12;98995.87;;;6.37;85.11
81997;BME280;71500;50.806;8.774;2023-12-14T04:26:43;99000.98;;;6.39;85.14
81997;BME280;71500;50.806;8.774;2023-12-14T04:29:15;99004.24;;;6.43;85.05
81997;BME280;71500;50.806;8.774;2023-12-14T04:31:46;99006.77;;;6.41;84.61
81997;BME280;71500;50.806;8.774;2023-12-14T04:34:18;99008.71;;;6.37;84.65
81997;BME280;71500;50.806;8.774;2023-12-14T04:36:51;99012.02;;;6.34;84.70
81997;BME280;71500;50.806;8.774;2023-12-14T04:39:22;99012.79;;;6.31;84.78
81997;BME280;71500;50.806;8.774;2023-12-14T04:41:55;99015.82;;;6.30;84.72
81997;BME280;71500;50.806;8.774;2023-12-14T04:44:26;99018.05;;;6.29;84.79
81997;BME280;71500;50.806;8.774;2023-12-14T04:46:58;99022.27;;;6.27;84.60
81997;BME280;71500;50.806;8.774;2023-12-14T04:49:29;99026.15;;;6.23;84.69
81997;BME280;71500;50.806;8.774;2023-12-14T04:52:01;99026.79;;;6.17;84.63
81997;BME280;71500;50.806;8.774;2023-12-14T04:54:32;99030.59;;;6.12;84.61
81997;BME280;71500;50.806;8.774;2023-12-14T04:57:06;99034.17;;;6.12;84.74
81997;BME280;71500;50.806;8.774;2023-12-14T04:59:37;99034.77;;;6.10;84.77
81997;BME280;71500;50.806;8.774;2023-12-14T05:02:09;99041.36;;;6.07;84.76
81997;BME280;71500;50.806;8.774;2023-12-14T05:04:40;99046.64;;;6.05;84.84
81997;BME280;71500;50.806;8.774;2023-12-14T05:07:11;99050.27;;;6.04;84.85
81997;BME280;71500;50.806;8.774;2023-12-14T05:09:43;99062.02;;;6.03;85.00
81997;BME280;71500;50.806;8.774;2023-12-14T05:12:14;99069.02;;;6.03;85.02
81997;BME280;71500;50.806;8.774;2023-12-14T05:14:45;99075.74;;;6.05;84.94
81997;BME280;71500;50.806;8.774;2023-12-14T05:17:17;99080.73;;;6.05;84.89
81997;BME280;71500;50.806;8.774;2023-12-14T05:19:48;99081.79;;;6.02;84.85
81997;BME280;71500;50.806;8.774;2023-12-14T05:22:20;99083.67;;;6.01;85.03
81997;BME280;71500;50.806;8.774;2023-12-14T05:24:51;99085.89;;;6.00;85.15
81997;BME280;71500;50.806;8.774;2023-12-14T05:27:22;99090.32;;;5.99;85.27
81997;BME280;71500;50.806;8.774;2023-12-14T05:29:55;99097.84;;;6.00;85.26
81997;BME280;71500;50.806;8.774;2023-12-14T05:32:26;99102.73;;;6.03;85.26
81997;BME280;71500;50.806;8.774;2023-12-14T05:34:58;99105.02;;;6.05;85.28
81997;BME280;71500;50.806;8.774;2023-12-14T05:37:30;99107.23;;;6.08;85.26
81997;BME280;71500;50.806;8.774;2023-12-14T05:40:02;99113.39;;;6.10;85.11
81997;BME280;71500;50.806;8.774;2023-12-14T05:42:35;99115.11;;;6.09;85.08
81997;BME280;71500;50.806;8.774;2023-12-14T05:45:09;99119.64;;;6.07;85.07
81997;BME280;71500;50.806;8.774;2023-12-14T05:47:42;99130.27;;;6.06;85.21
81997;BME280;71500;50.806;8.774;2023-12-14T05:50:13;99137.42;;;6.07;85.20
81997;BME280;71500;50.806;8.774;2023-12-14T05:52:45;99145.06;;;6.08;85.21
81997;BME280;71500;50.806;8.774;2023-12-14T05:55:16;99149.86;;;6.11;85.10
81997;BME280;71500;50.806;8.774;2023-12-14T05:57:52;99160.83;;;6.10;84.94
81997;BME280;71500;50.806;8.774;2023-12-14T06:00:23;99163.52;;;6.07;84.96
81997;BME280;71500;50.806;8.774;2023-12-14T06:02:55;99164.88;;;6.06;85.10
81997;BME280;71500;50.806;8.774;2023-12-14T06:05:26;99166.33;;;6.03;85.14
81997;BME280;71500;50.806;8.774;2023-12-14T06:07:58;99166.50;;;6.03;85.59
81997;BME280;71500;50.806;8.774;2023-12-14T06:10:29;99170.45;;;6.06;85.87
81997;BME280;71500;50.806;8.774;2023-12-14T06:13:02;99171.23;;;6.10;85.79
81997;BME280;71500;50.806;8.774;2023-12-14T06:15:33;99178.42;;;6.12;85.82
81997;BME280;71500;50.806;8.774;2023-12-14T06:18:05;99187.02;;;6.20;85.78
81997;BME280;71500;50.806;8.774;2023-12-14T06:20:36;99189.48;;;6.24;85.73
81997;BME280;71500;50.806;8.774;2023-12-14T06:23:08;99192.69;;;6.21;85.49
81997;BME280;71500;50.806;8.774;2023-12-14T06:25:39;99201.23;;;6.27;85.37
81997;BME280;71500;50.806;8.774;2023-12-14T06:28:10;99205.20;;;6.30;85.29
81997;BME280;71500;50.806;8.774;2023-12-14T06:30:42;99209.39;;;6.33;85.18
81997;BME280;71500;50.806;8.774;2023-12-14T06:33:13;99210.69;;;6.34;85.18
81997;BME280;71500;50.806;8.774;2023-12-14T06:35:45;99214.93;;;6.34;85.21
81997;BME280;71500;50.806;8.774;2023-12-14T06:38:16;99220.25;;;6.34;85.13
81997;BME280;71500;50.806;8.774;2023-12-14T06:40:48;99228.73;;;6.34;85.04
81997;BME280;71500;50.806;8.774;2023-12-14T06:43:19;99234.16;;;6.38;85.16
81997;BME280;71500;50.806;8.774;2023-12-14T06:45:50;99238.30;;;6.41;85.13
81997;BME280;71500;50.806;8.774;2023-12-14T06:48:22;99236.55;;;6.44;85.02
81997;BME280;71500;50.806;8.774;2023-12-14T06:50:54;99235.05;;;6.45;84.89
81997;BME280;71500;50.806;8.774;2023-12-14T06:53:26;99236.73;;;6.46;84.78
81997;BME280;71500;50.806;8.774;2023-12-14T06:55:57;99241.13;;;6.44;84.80
81997;BME280;71500;50.806;8.774;2023-12-14T06:58:28;99240.88;;;6.42;84.92
81997;BME280;71500;50.806;8.774;2023-12-14T07:00:59;99247.63;;;6.44;84.88
81997;BME280;71500;50.806;8.774;2023-12-14T07:03:31;99249.62;;;6.43;84.83
81997;BME280;71500;50.806;8.774;2023-12-14T07:06:03;99251.41;;;6.43;84.92
81997;BME280;71500;50.806;8.774;2023-12-14T07:08:34;99253.91;;;6.45;84.80
81997;BME280;71500;50.806;8.774;2023-12-14T07:11:06;99264.78;;;6.43;84.74
81997;BME280;71500;50.806;8.774;2023-12-14T07:13:38;99266.56;;;6.41;84.80
81997;BME280;71500;50.806;8.774;2023-12-14T07:16:10;99269.38;;;6.39;84.86
81997;BME280;71500;50.806;8.774;2023-12-14T07:18:42;99280.33;;;6.39;84.90
81997;BME280;71500;50.806;8.774;2023-12-14T07:21:14;99293.98;;;6.38;85.11
81997;BME280;71500;50.806;8.774;2023-12-14T07:23:45;99302.51;;;6.37;85.00
81997;BME280;71500;50.806;8.774;2023-12-14T07:26:17;99309.77;;;6.34;85.02
81997;BME280;71500;50.806;8.774;2023-12-14T07:28:49;99319.02;;;6.35;84.89
81997;BME280;71500;50.806;8.774;2023-12-14T07:31:20;99322.79;;;6.35;84.84
81997;BME280;71500;50.806;8.774;2023-12-14T07:33:51;99328.03;;;6.33;84.97
81997;BME280;71500;50.806;8.774;2023-12-14T07:36:23;99329.14;;;6.30;84.97
81997;BME280;71500;50.806;8.774;2023-12-14T07:38:54;99333.86;;;6.28;84.94
81997;BME280;71500;50.806;8.774;2023-12-14T07:41:25;99342.93;;;6.27;84.98
81997;BME280;71500;50.806;8.774;2023-12-14T07:43:59;99346.73;;;6.28;85.19
81997;BME280;71500;50.806;8.774;2023-12-14T07:46:36;99354.39;;;6.32;85.07
81997;BME280;71500;50.806;8.774;2023-12-14T07:49:09;99362.38;;;6.36;85.16
81997;BME280;71500;50.806;8.774;2023-12-14T07:51:41;99367.41;;;6.39;85.26
81997;BME280;71500;50.806;8.774;2023-12-14T07:54:12;99372.42;;;6.43;85.13
81997;BME280;71500;50.806;8.774;2023-12-14T07:56:43;99379.58;;;6.43;85.13
81997;BME280;71500;50.806;8.774;2023-12-14T07:59:15;99384.19;;;6.43;85.10
81997;BME280;71500;50.806;8.774;2023-12-14T08:01:46;99383.95;;;6.41;85.12
81997;BME280;71500;50.806;8.774;2023-12-14T08:04:18;99386.30;;;6.41;85.22
81997;BME280;71500;50.806;8.774;2023-12-14T08:06:49;99392.46;;;6.41;85.21
81997;BME280;71500;50.806;8.774;2023-12-14T08:09:21;99390.11;;;6.42;85.14
81997;BME280;71500;50.806;8.774;2023-12-14T08:11:52;99395.58;;;6.44;85.18
81997;BME280;71500;50.806;8.774;2023-12-14T08:14:24;99402.06;;;6.47;85.05
81997;BME280;71500;50.806;8.774;2023-12-14T08:16:55;99408.25;;;6.51;85.07
81997;BME280;71500;50.806;8.774;2023-12-14T08:19:26;99414.02;;;6.51;84.86
81997;BME280;71500;50.806;8.774;2023-12-14T08:21:58;99416.93;;;6.51;84.88
81997;BME280;71500;50.806;8.774;2023-12-14T08:24:30;99422.02;;;6.51;84.90
81997;BME280;71500;50.806;8.774;2023-12-14T08:27:01;99426.69;;;6.50;84.91
81997;BME280;71500;50.806;8.774;2023-12-14T08:29:33;99430.30;;;6.51;84.85
81997;BME280;71500;50.806;8.774;2023-12-14T08:32:06;99435.98;;;6.55;84.75
81997;BME280;71500;50.806;8.774;2023-12-14T08:34:37;99443.38;;;6.57;84.82
81997;BME280;71500;50.806;8.774;2023-12-14T08:37:08;99447.16;;;6.58;84.72
81997;BME280;71500;50.806;8.774;2023-12-14T08:39:40;99454.17;;;6.59;84.77
81997;BME280;71500;50.806;8.774;2023-12-14T08:42:13;99461.36;;;6.62;84.84
81997;BME280;71500;50.806;8.774;2023-12-14T08:44:44;99464.93;;;6.66;85.17
81997;BME280;71500;50.806;8.774;2023-12-14T08:47:15;99476.35;;;6.69;84.91
81997;BME280;71500;50.806;8.774;2023-12-14T08:49:47;99481.67;;;6.70;84.79
81997;BME280;71500;50.806;8.774;2023-12-14T08:52:19;99489.39;;;6.73;84.56
81997;BME280;71500;50.806;8.774;2023-12-14T08:54:51;99495.69;;;6.76;84.80
81997;BME280;71500;50.806;8.774;2023-12-14T08:57:22;99501.16;;;6.81;84.64
81997;BME280;71500;50.806;8.774;2023-12-14T08:59:53;99509.52;;;6.84;84.85
81997;BME280;71500;50.806;8.774;2023-12-14T09:02:24;99512.45;;;6.87;84.68
81997;BME280;71500;50.806;8.774;2023-12-14T09:04:56;99519.69;;;6.90;84.59
81997;BME280;71500;50.806;8.774;2023-12-14T09:07:27;99525.25;;;6.91;84.63
81997;BME280;71500;50.806;8.774;2023-12-14T09:09:59;99526.84;;;6.93;84.56
81997;BME280;71500;50.806;8.774;2023-12-14T09:12:30;99532.99;;;6.93;84.52
81997;BME280;71500;50.806;8.774;2023-12-14T09:15:02;99535.58;;;6.96;84.22
81997;BME280;71500;50.806;8.774;2023-12-14T09:17:34;99533.08;;;6.99;84.18
81997;BME280;71500;50.806;8.774;2023-12-14T09:20:09;99543.29;;;7.01;83.72
81997;BME280;71500;50.806;8.774;2023-12-14T09:22:41;99544.81;;;7.05;83.32
81997;BME280;71500;50.806;8.774;2023-12-14T09:25:13;99550.29;;;7.04;83.07
81997;BME280;71500;50.806;8.774;2023-12-14T09:27:45;99560.86;;;7.05;82.74
81997;BME280;71500;50.806;8.774;2023-12-14T09:30:17;99566.09;;;7.05;82.52
81997;BME280;71500;50.806;8.774;2023-12-14T09:32:48;99567.68;;;7.05;82.44
81997;BME280;71500;50.806;8.774;2023-12-14T09:35:20;99574.44;;;7.05;82.55
81997;BME280;71500;50.806;8.774;2023-12-14T09:37:51;99577.95;;;7.05;82.55
81997;BME280;71500;50.806;8.774;2023-12-14T09:40:23;99585.32;;;7.05;82.48
81997;BME280;71500;50.806;8.774;2023-12-14T09:42:56;99581.91;;;7.09;82.28
81997;BME280;71500;50.806;8.774;2023-12-14T09:45:29;99583.52;;;7.10;82.18
81997;BME280;71500;50.806;8.774;2023-12-14T09:48:01;99586.11;;;7.13;82.09
81997;BME280;71500;50.806;8.774;2023-12-14T09:50:35;99591.16;;;7.17;81.88
81997;BME280;71500;50.806;8.774;2023-12-14T09:53:05;99599.66;;;7.19;81.75
81997;BME280;71500;50.806;8.774;2023-12-14T09:55:36;99599.41;;;7.21;81.93
81997;BME280;71500;50.806;8.774;2023-12-14T09:58:07;99601.73;;;7.23;81.70
81997;BME280;71500;50.806;8.774;2023-12-14T10:00:41;99603.28;;;7.24;81.76
81997;BME280;71500;50.806;8.774;2023-12-14T10:03:26;99609.85;;;7.26;81.87
81997;BME280;71500;50.806;8.774;2023-12-14T10:05:59;99617.88;;;7.29;81.61
81997;BME280;71500;50.806;8.774;2023-12-14T10:08:32;99617.58;;;7.31;81.57
81997;BME280;71500;50.806;8.774;2023-12-14T10:11:15;99624.09;;;7.33;81.45
81997;BME280;71500;50.806;8.774;2023-12-14T10:13:47;99628.02;;;7.35;81.14
81997;BME280;71500;50.806;8.774;2023-12-14T10:16:33;99628.35;;;7.35;81.17
81997;BME280;71500;50.806;8.774;2023-12-14T10:19:04;99630.56;;;7.34;80.92
81997;BME280;71500;50.806;8.774;2023-12-14T10:21:36;99635.12;;;7.34;80.94
81997;BME280;71500;50.806;8.774;2023-12-14T10:24:07;99633.85;;;7.35;81.06
81997;BME280;71500;50.806;8.774;2023-12-14T10:26:39;99636.14;;;7.37;80.83
81997;BME280;71500;50.806;8.774;2023-12-14T10:29:10;99637.82;;;7.38;80.60
81997;BME280;71500;50.806;8.774;2023-12-14T10:31:43;99639.52;;;7.40;80.57
81997;BME280;71500;50.806;8.774;2023-12-14T10:34:14;99641.27;;;7.40;80.40
81997;BME280;71500;50.806;8.774;2023-12-14T10:36:47;99647.30;;;7.40;80.45
81997;BME280;71500;50.806;8.774;2023-12-14T10:39:19;99650.29;;;7.40;80.45
81997;BME280;71500;50.806;8.774;2023-12-14T10:41:52;99656.04;;;7.41;80.54
81997;BME280;71500;50.806;8.774;2023-12-14T10:44:37;99659.23;;;7.43;80.48
81997;BME280;71500;50.806;8.774;2023-12-14T10:47:29;99663.15;;;7.47;80.45
81997;BME280;71500;50.806;8.774;2023-12-14T10:50:01;99666.59;;;7.52;80.32
81997;BME280;71500;50.806;8.774;2023-12-14T10:52:33;99671.88;;;7.57;80.07
81997;BME280;71500;50.806;8.774;2023-12-14T10:55:09;99674.33;;;7.62;79.62
81997;BME280;71500;50.806;8.774;2023-12-14T10:57:42;99677.31;;;7.67;79.41
81997;BME280;71500;50.806;8.774;2023-12-14T11:00:17;99679.30;;;7.70;79.29
81997;BME280;71500;50.806;8.774;2023-12-14T11:02:48;99681.15;;;7.74;78.73
81997;BME280;71500;50.806;8.774;2023-12-14T11:05:21;99688.64;;;7.75;79.27
81997;BME280;71500;50.806;8.774;2023-12-14T11:08:03;99697.60;;;7.76;79.35
81997;BME280;71500;50.806;8.774;2023-12-14T11:10:41;99702.38;;;7.76;79.30
81997;BME280;71500;50.806;8.774;2023-12-14T11:13:13;99702.17;;;7.74;78.98
81997;BME280;71500;50.806;8.774;2023-12-14T11:15:47;99710.73;;;7.71;79.15
81997;BME280;71500;50.806;8.774;2023-12-14T11:18:29;99713.00;;;7.71;78.82
81997;BME280;71500;50.806;8.774;2023-12-14T11:21:02;99714.31;;;7.66;77.69
81997;BME280;71500;50.806;8.774;2023-12-14T11:23:36;99710.27;;;7.63;77.58
81997;BME280;71500;50.806;8.774;2023-12-14T11:26:10;99713.36;;;7.62;77.60
81997;BME280;71500;50.806;8.774;2023-12-14T11:28:42;99716.02;;;7.64;77.42
81997;BME280;71500;50.806;8.774;2023-12-14T11:31:14;99711.73;;;7.65;77.06
81997;BME280;71500;50.806;8.774;2023-12-14T11:33:45;99713.30;;;7.65;76.87
81997;BME280;71500;50.806;8.774;2023-12-14T11:36:18;99711.80;;;7.64;77.09
81997;BME280;71500;50.806;8.774;2023-12-14T11:38:50;99711.35;;;7.63;76.97
81997;BME280;71500;50.806;8.774;2023-12-14T11:41:24;99715.58;;;7.63;76.67
81997;BME280;71500;50.806;8.774;2023-12-14T11:43:57;99720.99;;;7.66;76.59
81997;BME280;71500;50.806;8.774;2023-12-14T11:46:29;99727.25;;;7.67;76.48
81997;BME280;71500;50.806;8.774;2023-12-14T11:49:02;99733.36;;;7.66;76.14
81997;BME280;71500;50.806;8.774;2023-12-14T11:51:35;99736.80;;;7.63;75.91
81997;BME280;71500;50.806;8.774;2023-12-14T11:54:07;99739.80;;;7.61;75.99
81997;BME280;71500;50.806;8.774;2023-12-14T11:56:39;99735.77;;;7.60;76.29
81997;BME280;71500;50.806;8.774;2023-12-14T11:59:13;99738.12;;;7.62;76.37
81997;BME280;71500;50.806;8.774;2023-12-14T12:01:56;99742.25;;;7.66;75.91
81997;BME280;71500;50.806;8.774;2023-12-14T12:04:28;99742.73;;;7.68;76.00
81997;BME280;71500;50.806;8.774;2023-12-14T12:07:02;99744.44;;;7.71;75.80
81997;BME280;71500;50.806;8.774;2023-12-14T12:09:35;99744.38;;;7.74;75.65
81997;BME280;71500;50.806;8.774;2023-12-14T12:12:08;99741.99;;;7.78;75.63
81997;BME280;71500;50.806;8.774;2023-12-14T12:14:41;99745.86;;;7.80;75.45
81997;BME280;71500;50.806;8.774;2023-12-14T12:17:12;99751.02;;;7.80;75.21
81997;BME280;71500;50.806;8.774;2023-12-14T12:19:45;99754.98;;;7.81;74.92
81997;BME280;71500;50.806;8.774;2023-12-14T12:22:16;99754.27;;;7.79;74.81
81997;BME280;71500;50.806;8.774;2023-12-14T12:24:48;99751.59;;;7.76;74.90
81997;BME280;71500;50.806;8.774;2023-12-14T12:27:33;99751.55;;;7.73;74.67
81997;BME280;71500;50.806;8.774;2023-12-14T12:30:07;99766.98;;;7.70;74.71
81997;BME280;71500;50.806;8.774;2023-12-14T12:32:39;99766.92;;;7.68;74.96
81997;BME280;71500;50.806;8.774;2023-12-14T12:35:10;99768.47;;;7.69;74.89
81997;BME280;71500;50.806;8.774;2023-12-14T12:37:42;99768.34;;;7.75;74.74
81997;BME280;71500;50.806;8.774;2023-12-14T12:40:14;99772.48;;;7.77;74.33
81997;BME280;71500;50.806;8.774;2023-12-14T12:42:50;99776.14;;;7.75;74.21
81997;BME280;71500;50.806;8.774;2023-12-14T12:45:21;99779.70;;;7.75;74.30
81997;BME280;71500;50.806;8.774;2023-12-14T12:47:56;99784.25;;;7.73;73.76
81997;BME280;71500;50.806;8.774;2023-12-14T12:50:27;99782.58;;;7.65;73.41
81997;BME280;71500;50.806;8.774;2023-12-14T12:52:59;99787.77;;;7.59;73.65
81997;BME280;71500;50.806;8.774;2023-12-14T12:55:31;99794.50;;;7.55;73.45
81997;BME280;71500;50.806;8.774;2023-12-14T12:58:02;99795.89;;;7.51;73.02
81997;BME280;71500;50.806;8.774;2023-12-14T13:00:37;99800.50;;;7.48;73.12
81997;BME280;71500;50.806;8.774;2023-12-14T13:03:08;99800.65;;;7.44;73.48
81997;BME280;71500;50.806;8.774;2023-12-14T13:05:40;99801.25;;;7.40;73.38
81997;BME280;71500;50.806;8.774;2023-12-14T13:08:12;99804.25;;;7.38;73.47
81997;BME280;71500;50.806;8.774;2023-12-14T13:10:44;99805.52;;;7.38;73.45
81997;BME280;71500;50.806;8.774;2023-12-14T13:13:15;99807.77;;;7.38;73.62
81997;BME280;71500;50.806;8.774;2023-12-14T13:15:46;99810.49;;;7.38;73.00
81997;BME280;71500;50.806;8.774;2023-12-14T13:18:18;99813.14;;;7.40;72.93
81997;BME280;71500;50.806;8.774;2023-12-14T13:20:49;99811.66;;;7.43;73.37
81997;BME280;71500;50.806;8.774;2023-12-14T13:23:21;99806.78;;;7.47;73.37
81997;BME280;71500;50.806;8.774;2023-12-14T13:25:53;99807.19;;;7.48;73.07
81997;BME280;71500;50.806;8.774;2023-12-14T13:28:24;99808.59;;;7.48;73.15
81997;BME280;71500;50.806;8.774;2023-12-14T13:30:55;99818.10;;;7.51;73.27
81997;BME280;71500;50.806;8.774;2023-12-14T13:33:27;99813.16;;;7.51;72.60
81997;BME280;71500;50.806;8.774;2023-12-14T13:35:58;99814.04;;;7.49;72.18